createdAt,value
2023-05-04T00:02:34.730Z,5.93
2023-05-04T00:05:23.120Z,5.30
2023-05-04T00:08:10.996Z,3.80
2023-05-04T00:10:59.028Z,5.37
2023-05-04T00:13:46.974Z,8.13
2023-05-04T00:16:36.696Z,4.13
2023-05-04T00:19:24.707Z,7.17
2023-05-04T00:22:12.926Z,4.97
2023-05-04T00:25:01.068Z,4.27
2023-05-04T00:27:49.015Z,5.07
2023-05-04T00:30:37.334Z,4.50
2023-05-04T00:33:26.719Z,4.87
2023-05-04T00:36:14.840Z,4.80
2023-05-04T00:39:02.810Z,6.10
2023-05-04T00:41:50.746Z,6.30
2023-05-04T00:44:41.373Z,4.10
2023-05-04T00:47:30.785Z,5.97
2023-05-04T00:50:20.718Z,5.47
2023-05-04T00:53:10.292Z,6.57
2023-05-04T00:55:58.920Z,5.20
2023-05-04T00:58:47.198Z,5.03
2023-05-04T01:01:35.306Z,5.03
2023-05-04T01:04:23.366Z,6.57
2023-05-04T01:07:21.100Z,6.23
2023-05-04T01:10:14.782Z,6.53
2023-05-04T01:13:08.448Z,6.73
2023-05-04T01:15:56.679Z,5.30
2023-05-04T01:18:44.750Z,5.47
2023-05-04T01:21:35.546Z,4.80
2023-05-04T01:24:24.128Z,6.10
2023-05-04T01:27:18.380Z,9.27
2023-05-04T01:30:12.289Z,6.20
2023-05-04T01:33:02.047Z,7.70
2023-05-04T01:35:50.733Z,6.13
2023-05-04T01:38:40.159Z,5.20
2023-05-04T01:41:28.837Z,6.10
2023-05-04T01:44:17.449Z,4.80
2023-05-04T01:47:05.495Z,6.87
2023-05-04T01:49:53.472Z,7.27
2023-05-04T01:52:41.463Z,5.70
2023-05-04T01:55:31.531Z,5.97
2023-05-04T01:58:19.667Z,8.90
2023-05-04T02:01:08.118Z,7.83
2023-05-04T02:03:56.149Z,6.30
2023-05-04T02:06:44.245Z,6.97
2023-05-04T02:09:32.441Z,6.63
2023-05-04T02:12:21.753Z,6.47
2023-05-04T02:15:10.850Z,6.77
2023-05-04T02:17:58.781Z,6.80
2023-05-04T02:20:46.778Z,4.60
2023-05-04T02:23:34.730Z,5.57
2023-05-04T02:26:22.692Z,7.47
2023-05-04T02:29:11.928Z,6.03
2023-05-04T02:31:59.923Z,9.57
2023-05-04T02:34:47.943Z,7.43
2023-05-04T02:37:35.913Z,8.17
2023-05-04T02:40:23.935Z,7.53
2023-05-04T02:43:11.878Z,8.03
2023-05-04T02:46:01.245Z,10.73
2023-05-04T02:48:49.493Z,7.93
2023-05-04T02:51:37.431Z,4.73
2023-05-04T02:54:25.445Z,6.07
2023-05-04T02:57:13.441Z,5.73
2023-05-04T03:00:01.463Z,7.83
2023-05-04T03:02:50.998Z,6.67
2023-05-04T03:05:38.994Z,10.93
2023-05-04T03:08:27.150Z,8.23
2023-05-04T03:11:15.312Z,7.70
2023-05-04T03:14:03.411Z,6.93
2023-05-04T03:16:51.527Z,7.63
2023-05-04T03:19:41.074Z,6.43
2023-05-04T03:22:29.042Z,9.37
2023-05-04T03:25:17.368Z,7.17
2023-05-04T03:28:05.787Z,7.10
2023-05-04T03:30:53.845Z,7.23
2023-05-04T03:33:41.754Z,7.93
2023-05-04T03:36:31.284Z,6.20
2023-05-04T03:39:19.191Z,8.50
2023-05-04T03:42:07.120Z,7.97
2023-05-04T03:44:55.220Z,6.33
2023-05-04T03:47:43.222Z,6.37
2023-05-04T03:50:31.908Z,7.43
2023-05-04T03:53:21.319Z,7.47
2023-05-04T03:56:09.626Z,9.03
2023-05-04T03:58:57.628Z,6.60
2023-05-04T04:01:46.093Z,8.73
2023-05-04T04:04:34.180Z,7.47
2023-05-04T04:07:22.242Z,11.03
2023-05-04T04:10:12.366Z,8.67
2023-05-04T04:13:00.302Z,8.53
2023-05-04T04:15:48.310Z,9.47
2023-05-04T04:18:36.331Z,7.50
2023-05-04T04:21:24.281Z,10.30
2023-05-04T04:24:12.404Z,11.87
2023-05-04T04:27:02.820Z,7.20
2023-05-04T04:29:50.785Z,7.77
2023-05-04T04:32:38.794Z,7.33
2023-05-04T04:35:27.490Z,7.93
2023-05-04T04:38:15.546Z,7.50
2023-05-04T04:41:03.475Z,7.28
2023-05-04T04:43:52.741Z,9.03
2023-05-04T04:46:40.724Z,8.93
2023-05-04T04:49:28.831Z,12.23
2023-05-04T04:52:17.263Z,9.23
2023-05-04T04:55:05.685Z,8.00
2023-05-04T04:57:54.515Z,8.70
2023-05-04T05:00:45.379Z,9.90
2023-05-04T05:03:33.789Z,10.83
2023-05-04T05:06:22.162Z,10.97
2023-05-04T05:09:10.493Z,8.00
2023-05-04T05:11:58.421Z,9.30
2023-05-04T05:14:47.273Z,9.57
2023-05-04T05:17:37.549Z,7.07
2023-05-04T05:20:25.985Z,7.20
2023-05-04T05:23:14.018Z,11.70
2023-05-04T05:26:03.387Z,6.83
2023-05-04T05:28:51.977Z,5.87
2023-05-04T05:31:40.064Z,7.53
2023-05-04T05:34:29.662Z,6.77
2023-05-04T05:37:17.591Z,10.50
2023-05-04T05:40:07.949Z,8.00
2023-05-04T05:42:56.090Z,6.13
2023-05-04T05:45:44.064Z,7.00
2023-05-04T05:48:31.913Z,11.47
2023-05-04T05:51:21.366Z,9.23
2023-05-04T05:54:09.247Z,7.60
2023-05-04T05:56:57.190Z,7.60
2023-05-04T05:59:45.084Z,6.50
2023-05-04T06:02:33.108Z,8.70
2023-05-04T06:05:21.031Z,10.53
2023-05-04T06:08:10.390Z,7.97
2023-05-04T06:10:58.310Z,8.83
2023-05-04T06:13:46.221Z,10.87
2023-05-04T06:16:34.246Z,8.07
2023-05-04T06:19:22.136Z,8.50
2023-05-04T06:22:10.064Z,7.30
2023-05-04T06:25:03.678Z,7.87
2023-05-04T06:27:53.939Z,7.27
2023-05-04T06:30:41.850Z,5.87
2023-05-04T06:33:29.892Z,6.80
2023-05-04T06:36:17.887Z,7.77
2023-05-04T06:39:05.803Z,9.27
2023-05-04T06:41:56.265Z,6.97
2023-05-04T06:44:44.243Z,6.77
2023-05-04T06:47:32.279Z,6.63
2023-05-04T06:50:20.405Z,6.43
2023-05-04T06:53:10.162Z,7.07
2023-05-04T06:55:58.103Z,5.97
2023-05-04T06:58:47.458Z,5.97
2023-05-04T07:01:35.449Z,5.10
2023-05-04T07:04:23.583Z,7.57
2023-05-04T07:07:11.481Z,6.97
2023-05-04T07:09:59.427Z,5.67
2023-05-04T07:12:47.913Z,8.10
2023-05-04T07:15:37.347Z,5.10
2023-05-04T07:18:25.273Z,5.87
2023-05-04T07:24:05.247Z,6.97
2023-05-04T07:26:53.208Z,7.23
2023-05-04T07:29:41.643Z,5.63
2023-05-04T07:32:31.010Z,8.43
2023-05-04T07:35:19.049Z,6.33
2023-05-04T07:38:08.201Z,5.13
2023-05-04T07:40:56.522Z,6.10
2023-05-04T07:43:44.490Z,6.90
2023-05-04T07:46:32.501Z,5.53
2023-05-04T07:49:21.731Z,7.30
2023-05-04T07:52:09.703Z,5.33
2023-05-04T07:54:57.874Z,7.53
2023-05-04T07:57:45.816Z,5.33
2023-05-04T08:00:33.697Z,6.27
2023-05-04T08:03:21.714Z,6.00
2023-05-04T08:06:11.012Z,7.00
2023-05-04T08:08:59.251Z,6.07
2023-05-04T08:11:48.220Z,7.83
2023-05-04T08:14:38.424Z,6.53
2023-05-04T08:17:26.978Z,6.37
2023-05-04T08:20:15.278Z,7.00
2023-05-04T08:23:05.056Z,6.80
2023-05-04T08:25:53.480Z,5.50
2023-05-04T08:28:41.716Z,5.13
2023-05-04T08:31:30.220Z,4.87
2023-05-04T08:34:18.122Z,4.90
2023-05-04T08:37:06.139Z,3.90
2023-05-04T08:39:55.507Z,4.40
2023-05-04T08:42:48.005Z,5.70
2023-05-04T08:45:39.486Z,4.60
2023-05-04T08:48:27.694Z,7.60
2023-05-04T08:51:16.103Z,6.40
2023-05-04T08:54:07.784Z,5.27
2023-05-04T08:56:58.809Z,6.70
2023-05-04T08:59:50.429Z,5.83
2023-05-04T09:02:39.040Z,4.00
2023-05-04T09:05:27.530Z,6.07
2023-05-04T09:08:16.403Z,7.47
2023-05-04T09:11:04.857Z,5.10
2023-05-04T09:13:54.189Z,6.80
2023-05-04T09:16:42.563Z,5.73
2023-05-04T09:19:33.656Z,7.60
2023-05-04T09:22:21.701Z,6.00
2023-05-04T09:25:11.759Z,6.20
2023-05-04T09:27:59.913Z,4.00
2023-05-04T09:30:49.805Z,6.87
2023-05-04T09:33:37.923Z,6.73
2023-05-04T09:36:26.663Z,6.20
2023-05-04T09:39:16.126Z,4.87
2023-05-04T09:42:04.930Z,5.53
2023-05-04T09:45:03.166Z,5.93
2023-05-04T09:47:54.338Z,5.40
2023-05-04T09:50:49.589Z,6.03
2023-05-04T09:53:41.989Z,5.47
2023-05-04T09:56:38.575Z,7.13
2023-05-04T09:59:31.678Z,6.43
2023-05-04T10:02:23.293Z,6.13
2023-05-04T10:05:17.112Z,4.27
2023-05-04T10:08:06.604Z,7.20
2023-05-04T10:10:55.685Z,6.40
2023-05-04T10:13:43.683Z,8.07
2023-05-04T10:16:42.571Z,7.17
2023-05-04T10:19:43.639Z,4.53
2023-05-04T10:22:49.688Z,4.13
2023-05-04T10:25:52.640Z,4.63
2023-05-04T10:28:50.769Z,5.50
2023-05-04T10:31:40.475Z,4.40
2023-05-04T10:34:30.805Z,4.67
2023-05-04T10:37:20.437Z,4.60
2023-05-04T10:40:10.880Z,5.93
2023-05-04T10:42:58.785Z,5.10
2023-05-04T10:45:46.740Z,5.33
2023-05-04T10:48:35.886Z,4.17
2023-05-04T10:51:30.123Z,3.67
2023-05-04T10:54:23.800Z,3.87
2023-05-04T10:57:17.072Z,7.20
2023-05-04T11:00:05.808Z,4.47
2023-05-04T11:03:04.236Z,4.00
2023-05-04T11:05:54.717Z,6.20
2023-05-04T11:08:43.126Z,4.17
2023-05-04T11:11:31.069Z,5.87
2023-05-04T11:14:25.963Z,5.37
2023-05-04T11:20:08.000Z,3.67
2023-05-04T11:22:56.197Z,3.70
2023-05-04T11:25:44.283Z,3.53
2023-05-04T11:28:35.985Z,4.67
2023-05-04T11:31:25.802Z,4.53
2023-05-04T11:34:21.047Z,3.40
2023-05-04T11:37:08.957Z,4.13
2023-05-04T11:39:58.097Z,3.40
2023-05-04T11:42:46.448Z,5.67
2023-05-04T11:45:37.643Z,5.10
2023-05-04T11:48:27.941Z,4.03
2023-05-04T11:51:15.924Z,5.20
2023-05-04T11:54:04.046Z,4.40
2023-05-04T11:56:51.987Z,5.43
2023-05-04T11:59:49.638Z,6.63
2023-05-04T12:02:37.662Z,5.20
2023-05-04T12:05:28.588Z,7.17
2023-05-04T12:08:27.551Z,5.20
2023-05-04T12:11:20.341Z,5.10
2023-05-04T12:14:10.389Z,3.90
2023-05-04T12:17:01.752Z,5.20
2023-05-04T12:19:54.186Z,4.40
2023-05-04T12:22:43.724Z,3.90
2023-05-04T12:25:31.655Z,5.10
2023-05-04T12:28:20.762Z,4.07
2023-05-04T12:31:09.360Z,4.07
2023-05-04T12:33:57.337Z,3.87
2023-05-04T12:36:45.401Z,3.60
2023-05-04T12:39:34.688Z,4.70
2023-05-04T12:42:22.712Z,4.20
2023-05-04T12:45:11.579Z,7.27
2023-05-04T12:47:59.558Z,7.10
2023-05-04T12:50:48.550Z,5.57
2023-05-04T12:53:36.943Z,6.17
2023-05-04T12:56:26.309Z,4.77
2023-05-04T12:59:14.542Z,4.27
2023-05-04T13:02:02.771Z,3.60
2023-05-04T13:04:50.706Z,7.07
2023-05-04T13:07:38.605Z,5.20
2023-05-04T13:10:27.017Z,5.37
2023-05-04T13:13:17.955Z,4.80
2023-05-04T13:16:06.865Z,3.83
2023-05-04T13:18:55.476Z,4.83
2023-05-04T13:21:44.166Z,4.00
2023-05-04T13:24:32.063Z,4.20
2023-05-04T13:27:20.070Z,4.37
2023-05-04T13:30:10.930Z,4.47
2023-05-04T13:32:59.004Z,4.50
2023-05-04T13:35:46.939Z,3.70
2023-05-04T13:38:35.011Z,4.30
2023-05-04T13:41:23.070Z,3.83
2023-05-04T13:44:11.221Z,4.80
2023-05-04T13:47:03.190Z,5.50
2023-05-04T13:49:51.435Z,3.57
2023-05-04T13:52:39.405Z,5.53
2023-05-04T13:55:27.561Z,4.97
2023-05-04T13:58:15.488Z,5.63
2023-05-04T14:01:03.517Z,4.27
2023-05-04T14:03:54.069Z,4.30
2023-05-04T14:06:42.031Z,3.40
2023-05-04T14:09:29.965Z,3.60
2023-05-04T14:12:19.724Z,3.60
2023-05-04T14:15:08.704Z,3.57
2023-05-04T14:17:56.833Z,4.57
2023-05-04T14:20:46.218Z,4.37
2023-05-04T14:23:34.274Z,6.53
2023-05-04T14:26:22.294Z,4.80
2023-05-04T14:29:10.277Z,3.30
2023-05-04T14:31:58.187Z,3.63
2023-05-04T14:34:47.799Z,4.27
2023-05-04T14:37:39.890Z,3.10
2023-05-04T14:40:28.200Z,4.17
2023-05-04T14:43:16.205Z,4.30
2023-05-04T14:46:04.245Z,3.20
2023-05-04T14:48:52.455Z,4.33
2023-05-04T14:51:40.408Z,3.33
2023-05-04T14:54:30.172Z,3.40
2023-05-04T14:57:18.133Z,4.80
2023-05-04T15:00:08.791Z,3.63
2023-05-04T15:02:57.183Z,3.67
2023-05-04T15:05:45.493Z,4.23
2023-05-04T15:08:33.442Z,5.70
2023-05-04T15:11:22.708Z,3.70
2023-05-04T15:14:10.628Z,3.30
2023-05-04T15:16:58.539Z,3.97
2023-05-04T15:19:46.400Z,3.57
2023-05-04T15:22:34.490Z,3.97
2023-05-04T15:25:24.881Z,3.30
2023-05-04T15:28:14.229Z,3.20
2023-05-04T15:31:03.555Z,3.35
2023-05-04T15:33:51.591Z,3.27
2023-05-04T15:36:39.570Z,5.85
2023-05-04T15:39:27.526Z,3.20
2023-05-04T15:42:15.547Z,4.47
2023-05-04T15:45:05.469Z,4.05
2023-05-04T15:47:54.240Z,3.95
2023-05-04T15:50:42.515Z,3.75
2023-05-04T15:53:30.495Z,3.20
2023-05-04T15:56:18.594Z,4.53
2023-05-04T15:59:06.624Z,4.57
2023-05-04T16:01:56.040Z,3.72
2023-05-04T16:04:43.956Z,3.03
2023-05-04T16:07:31.990Z,4.82
2023-05-04T16:10:20.279Z,3.88
2023-05-04T16:13:09.933Z,3.60
2023-05-04T16:15:59.912Z,3.40
2023-05-04T16:18:49.229Z,3.90
2023-05-04T16:21:37.169Z,2.58
2023-05-04T16:24:25.812Z,3.20
2023-05-04T16:27:13.770Z,3.05
2023-05-04T16:30:01.749Z,2.90
2023-05-04T16:32:50.070Z,4.97
2023-05-04T16:35:39.726Z,3.05
2023-05-04T16:38:27.675Z,3.33
2023-05-04T16:41:15.758Z,3.05
2023-05-04T16:44:03.717Z,4.75
2023-05-04T16:46:52.054Z,2.70
2023-05-04T16:49:39.903Z,2.80
2023-05-04T16:52:29.187Z,3.50
2023-05-04T16:55:17.164Z,3.20
2023-05-04T16:58:05.436Z,3.90
2023-05-04T17:00:53.485Z,3.03
2023-05-04T17:03:41.641Z,3.20
2023-05-04T17:06:29.636Z,3.22
2023-05-04T17:09:18.858Z,3.70
2023-05-04T17:12:07.491Z,3.15
2023-05-04T17:14:55.642Z,2.65
2023-05-04T17:17:43.693Z,2.73
2023-05-04T17:20:31.983Z,2.80
2023-05-04T17:23:20.288Z,2.60
2023-05-04T17:26:10.355Z,2.75
2023-05-04T17:28:58.489Z,3.00
2023-05-04T17:31:46.448Z,4.03
2023-05-04T17:34:34.381Z,3.63
2023-05-04T17:37:22.304Z,4.43
2023-05-04T17:40:11.310Z,2.90
2023-05-04T17:43:01.327Z,3.37
2023-05-04T17:45:49.535Z,4.07
2023-05-04T17:48:37.578Z,3.10
2023-05-04T17:51:25.839Z,3.30
2023-05-04T17:54:13.770Z,4.27
2023-05-04T17:57:01.696Z,2.50
2023-05-04T17:59:50.962Z,2.57
2023-05-04T18:02:39.192Z,2.77
2023-05-04T18:05:27.219Z,2.83
2023-05-04T18:08:15.630Z,3.83
2023-05-04T18:11:03.631Z,3.10
2023-05-04T18:13:51.943Z,3.70
2023-05-04T18:16:41.301Z,3.00
2023-05-04T18:19:29.488Z,3.43
2023-05-04T18:22:17.945Z,3.10
2023-05-04T18:25:06.827Z,2.73
2023-05-04T18:27:54.775Z,4.83
2023-05-04T18:30:42.868Z,2.90
2023-05-04T18:33:32.495Z,2.67
2023-05-04T18:36:20.480Z,2.80
2023-05-04T18:39:08.748Z,2.63
2023-05-04T18:41:56.769Z,2.70
2023-05-04T18:44:44.749Z,6.43
2023-05-04T18:47:32.756Z,3.97
2023-05-04T18:50:22.049Z,2.70
2023-05-04T18:53:09.966Z,4.10
2023-05-04T18:56:02.736Z,3.07
2023-05-04T18:58:51.153Z,4.60
2023-05-04T19:01:39.391Z,4.33
2023-05-04T19:04:27.620Z,4.10
2023-05-04T19:07:17.778Z,5.87
2023-05-04T19:10:07.206Z,5.33
2023-05-04T19:12:55.931Z,3.77
2023-05-04T19:15:44.222Z,3.20
2023-05-04T19:18:34.305Z,4.30
2023-05-04T19:21:22.667Z,2.80
2023-05-04T19:24:11.984Z,3.53
2023-05-04T19:27:00.737Z,4.43
2023-05-04T19:29:48.782Z,2.60
2023-05-04T19:32:38.698Z,4.43
2023-05-04T19:35:26.899Z,4.70
2023-05-04T19:38:14.872Z,2.80
2023-05-04T19:41:04.292Z,3.03
2023-05-04T19:43:52.234Z,3.17
2023-05-04T19:46:40.179Z,5.00
2023-05-04T19:49:28.194Z,3.17
2023-05-04T19:52:16.614Z,4.63
2023-05-04T19:55:04.592Z,3.97
2023-05-04T19:57:54.091Z,3.37
2023-05-04T20:00:42.086Z,3.63
2023-05-04T20:03:30.341Z,5.43
2023-05-04T20:06:18.297Z,3.57
2023-05-04T20:09:06.724Z,3.30
2023-05-04T20:11:54.679Z,3.17
2023-05-04T20:14:44.278Z,3.53
2023-05-04T20:17:32.292Z,5.00
2023-05-04T20:20:22.597Z,4.70
2023-05-04T20:23:10.498Z,3.73
2023-05-04T20:25:58.830Z,2.53
2023-05-04T20:28:46.805Z,3.43
2023-05-04T20:31:36.291Z,2.67
2023-05-04T20:34:24.357Z,2.80
2023-05-04T20:37:12.298Z,5.30
2023-05-04T20:40:00.278Z,3.33
2023-05-04T20:42:48.274Z,3.30
2023-05-04T20:45:36.193Z,3.63
2023-05-04T20:48:25.643Z,2.93
2023-05-04T20:51:15.108Z,5.50
2023-05-04T20:54:03.625Z,3.43
2023-05-04T20:56:51.559Z,3.17
2023-05-04T20:59:39.503Z,4.57
2023-05-04T21:02:27.494Z,3.77
2023-05-04T21:05:17.037Z,4.57
2023-05-04T21:08:05.377Z,3.67
2023-05-04T21:10:53.466Z,5.83
2023-05-04T21:13:41.423Z,3.97
2023-05-04T21:16:29.446Z,3.80
2023-05-04T21:19:17.538Z,5.77
2023-05-04T21:22:06.853Z,5.83
2023-05-04T21:24:54.810Z,3.93
2023-05-04T21:27:44.411Z,3.70
2023-05-04T21:30:32.575Z,4.73
2023-05-04T21:33:20.865Z,3.97
2023-05-04T21:36:13.636Z,3.37
2023-05-04T21:39:03.281Z,6.03
2023-05-04T21:41:51.214Z,4.70
2023-05-04T21:44:39.282Z,4.33
2023-05-04T21:47:27.974Z,4.20
2023-05-04T21:50:16.246Z,4.50
2023-05-04T21:53:04.222Z,6.43
2023-05-04T21:55:53.491Z,6.23
2023-05-04T21:58:42.069Z,3.97
2023-05-04T22:01:30.121Z,3.93
2023-05-04T22:04:18.193Z,4.40
2023-05-04T22:07:06.161Z,5.90
2023-05-04T22:09:54.118Z,3.57
2023-05-04T22:12:43.435Z,4.90
2023-05-04T22:15:42.034Z,5.87
2023-05-04T22:18:34.480Z,4.13
2023-05-04T22:21:22.455Z,5.33
2023-05-04T22:24:10.639Z,7.07
2023-05-04T22:26:58.706Z,4.17
2023-05-04T22:29:48.016Z,5.53
2023-05-04T22:32:36.026Z,6.83
2023-05-04T22:35:24.239Z,5.23
2023-05-04T22:38:14.254Z,5.77
2023-05-04T22:41:02.387Z,7.60
2023-05-04T22:43:50.360Z,4.17
2023-05-04T22:46:39.793Z,6.20
2023-05-04T22:49:27.851Z,4.87
2023-05-04T22:52:16.032Z,6.37
2023-05-04T22:55:04.045Z,3.90
2023-05-04T22:57:52.135Z,3.93
2023-05-04T23:00:40.057Z,6.60
2023-05-04T23:03:29.858Z,4.30
2023-05-04T23:06:17.986Z,5.83
2023-05-04T23:09:06.006Z,4.37
2023-05-04T23:11:54.200Z,4.97
2023-05-04T23:14:42.363Z,5.67
2023-05-04T23:17:30.457Z,6.07
2023-05-04T23:20:19.860Z,5.20
2023-05-04T23:23:07.797Z,4.20
2023-05-04T23:25:55.962Z,4.50
2023-05-04T23:28:44.309Z,5.93
2023-05-04T23:31:32.287Z,4.70
2023-05-04T23:34:20.300Z,4.77
2023-05-04T23:37:09.699Z,4.93
2023-05-04T23:39:57.693Z,4.47
2023-05-04T23:42:49.357Z,6.27
2023-05-04T23:45:37.422Z,4.23
2023-05-04T23:48:25.378Z,4.43
2023-05-04T23:51:13.355Z,3.83
2023-05-04T23:54:02.641Z,5.70
2023-05-04T23:56:50.501Z,4.47
2023-05-04T23:59:40.241Z,7.67
